sensor_id;sensor_type;location;lat;lon;timestamp;temperature;humidity
3770;DHT22;1900;48.890;9.190;2024-01-30T00:01:52;10.10;53.20
3770;DHT22;1900;48.890;9.190;2024-01-30T00:04:18;10.00;53.20
3770;DHT22;1900;48.890;9.190;2024-01-30T00:06:44;10.10;53.30
3770;DHT22;1900;48.890;9.190;2024-01-30T00:09:10;10.00;53.20
3770;DHT22;1900;48.890;9.190;2024-01-30T00:11:37;10.00;53.10
3770;DHT22;1900;48.890;9.190;2024-01-30T00:14:03;10.00;53.10
3770;DHT22;1900;48.890;9.190;2024-01-30T00:16:29;10.00;53.10
3770;DHT22;1900;48.890;9.190;2024-01-30T00:18:55;10.00;53.00
3770;DHT22;1900;48.890;9.190;2024-01-30T00:21:21;9.90;53.80
3770;DHT22;1900;48.890;9.190;2024-01-30T00:23:47;9.90;53.90
3770;DHT22;1900;48.890;9.190;2024-01-30T00:26:13;9.90;53.90
3770;DHT22;1900;48.890;9.190;2024-01-30T00:28:42;9.90;53.90
3770;DHT22;1900;48.890;9.190;2024-01-30T00:31:08;9.90;53.90
3770;DHT22;1900;48.890;9.190;2024-01-30T00:33:41;9.80;53.90
3770;DHT22;1900;48.890;9.190;2024-01-30T00:36:08;9.80;53.80
3770;DHT22;1900;48.890;9.190;2024-01-30T00:38:34;9.80;53.70
3770;DHT22;1900;48.890;9.190;2024-01-30T00:41:00;9.80;53.80
3770;DHT22;1900;48.890;9.190;2024-01-30T00:43:27;9.70;53.70
3770;DHT22;1900;48.890;9.190;2024-01-30T00:45:53;9.70;53.60
3770;DHT22;1900;48.890;9.190;2024-01-30T00:48:20;9.70;53.60
3770;DHT22;1900;48.890;9.190;2024-01-30T00:50:46;9.60;53.50
3770;DHT22;1900;48.890;9.190;2024-01-30T00:53:12;9.60;53.60
3770;DHT22;1900;48.890;9.190;2024-01-30T00:55:37;9.60;53.60
3770;DHT22;1900;48.890;9.190;2024-01-30T00:58:04;9.60;53.70
3770;DHT22;1900;48.890;9.190;2024-01-30T01:00:30;9.60;53.70
3770;DHT22;1900;48.890;9.190;2024-01-30T01:02:56;9.50;53.60
3770;DHT22;1900;48.890;9.190;2024-01-30T01:05:22;9.50;53.60
3770;DHT22;1900;48.890;9.190;2024-01-30T01:07:48;9.50;53.70
3770;DHT22;1900;48.890;9.190;2024-01-30T01:10:14;9.50;53.60
3770;DHT22;1900;48.890;9.190;2024-01-30T01:12:41;9.50;53.70
3770;DHT22;1900;48.890;9.190;2024-01-30T01:15:07;9.50;53.80
3770;DHT22;1900;48.890;9.190;2024-01-30T01:17:35;9.40;53.60
3770;DHT22;1900;48.890;9.190;2024-01-30T01:20:02;9.50;53.70
3770;DHT22;1900;48.890;9.190;2024-01-30T01:22:29;9.40;53.60
3770;DHT22;1900;48.890;9.190;2024-01-30T01:24:55;9.40;53.70
3770;DHT22;1900;48.890;9.190;2024-01-30T01:27:21;9.40;53.70
3770;DHT22;1900;48.890;9.190;2024-01-30T01:29:47;9.40;53.80
3770;DHT22;1900;48.890;9.190;2024-01-30T01:32:13;9.40;53.80
3770;DHT22;1900;48.890;9.190;2024-01-30T01:34:39;9.40;53.80
3770;DHT22;1900;48.890;9.190;2024-01-30T01:37:05;9.40;53.80
3770;DHT22;1900;48.890;9.190;2024-01-30T01:39:32;9.40;53.70
3770;DHT22;1900;48.890;9.190;2024-01-30T01:41:58;9.40;53.70
3770;DHT22;1900;48.890;9.190;2024-01-30T01:44:24;9.40;53.70
3770;DHT22;1900;48.890;9.190;2024-01-30T01:46:51;9.40;53.70
3770;DHT22;1900;48.890;9.190;2024-01-30T01:49:18;9.40;53.70
3770;DHT22;1900;48.890;9.190;2024-01-30T01:51:45;9.30;53.60
3770;DHT22;1900;48.890;9.190;2024-01-30T01:54:13;9.30;53.70
3770;DHT22;1900;48.890;9.190;2024-01-30T01:56:39;9.30;53.70
3770;DHT22;1900;48.890;9.190;2024-01-30T01:59:07;9.30;53.70
3770;DHT22;1900;48.890;9.190;2024-01-30T02:01:34;9.30;53.70
3770;DHT22;1900;48.890;9.190;2024-01-30T02:04:01;9.30;53.80
3770;DHT22;1900;48.890;9.190;2024-01-30T02:06:27;9.30;53.70
3770;DHT22;1900;48.890;9.190;2024-01-30T02:08:54;9.30;53.60
3770;DHT22;1900;48.890;9.190;2024-01-30T02:11:20;9.30;53.60
3770;DHT22;1900;48.890;9.190;2024-01-30T02:13:46;9.30;53.60
3770;DHT22;1900;48.890;9.190;2024-01-30T02:16:12;9.20;53.60
3770;DHT22;1900;48.890;9.190;2024-01-30T02:18:37;9.20;53.60
3770;DHT22;1900;48.890;9.190;2024-01-30T02:21:08;9.20;53.50
3770;DHT22;1900;48.890;9.190;2024-01-30T02:23:34;9.20;53.50
3770;DHT22;1900;48.890;9.190;2024-01-30T02:26:00;9.20;53.50
3770;DHT22;1900;48.890;9.190;2024-01-30T02:28:26;9.10;53.40
3770;DHT22;1900;48.890;9.190;2024-01-30T02:30:53;9.10;53.40
3770;DHT22;1900;48.890;9.190;2024-01-30T02:33:19;9.10;53.50
3770;DHT22;1900;48.890;9.190;2024-01-30T02:35:45;9.10;53.50
3770;DHT22;1900;48.890;9.190;2024-01-30T02:38:10;9.10;53.40
3770;DHT22;1900;48.890;9.190;2024-01-30T02:40:36;9.10;53.40
3770;DHT22;1900;48.890;9.190;2024-01-30T02:43:04;9.00;53.40
3770;DHT22;1900;48.890;9.190;2024-01-30T02:45:30;9.00;53.30
3770;DHT22;1900;48.890;9.190;2024-01-30T02:47:55;9.00;53.30
3770;DHT22;1900;48.890;9.190;2024-01-30T02:50:21;9.00;53.40
3770;DHT22;1900;48.890;9.190;2024-01-30T02:52:47;9.00;53.40
3770;DHT22;1900;48.890;9.190;2024-01-30T02:55:12;8.90;53.30
3770;DHT22;1900;48.890;9.190;2024-01-30T02:57:39;8.90;53.40
3770;DHT22;1900;48.890;9.190;2024-01-30T03:00:05;8.90;53.40
3770;DHT22;1900;48.890;9.190;2024-01-30T03:02:32;8.90;53.40
3770;DHT22;1900;48.890;9.190;2024-01-30T03:04:59;8.90;53.30
3770;DHT22;1900;48.890;9.190;2024-01-30T03:07:25;8.80;53.20
3770;DHT22;1900;48.890;9.190;2024-01-30T03:09:50;8.80;53.20
3770;DHT22;1900;48.890;9.190;2024-01-30T03:12:16;8.80;53.30
3770;DHT22;1900;48.890;9.190;2024-01-30T03:14:42;8.80;53.30
3770;DHT22;1900;48.890;9.190;2024-01-30T03:17:08;8.80;53.20
3770;DHT22;1900;48.890;9.190;2024-01-30T03:19:33;8.70;53.20
3770;DHT22;1900;48.890;9.190;2024-01-30T03:22:00;8.70;53.20
3770;DHT22;1900;48.890;9.190;2024-01-30T03:24:25;8.70;53.10
3770;DHT22;1900;48.890;9.190;2024-01-30T03:26:51;8.70;53.20
3770;DHT22;1900;48.890;9.190;2024-01-30T03:29:17;8.70;53.20
3770;DHT22;1900;48.890;9.190;2024-01-30T03:31:43;8.60;53.20
3770;DHT22;1900;48.890;9.190;2024-01-30T03:34:08;8.60;53.20
3770;DHT22;1900;48.890;9.190;2024-01-30T03:36:34;8.60;53.30
3770;DHT22;1900;48.890;9.190;2024-01-30T03:39:00;8.60;53.30
3770;DHT22;1900;48.890;9.190;2024-01-30T03:41:26;8.60;53.30
3770;DHT22;1900;48.890;9.190;2024-01-30T03:43:52;8.60;53.30
3770;DHT22;1900;48.890;9.190;2024-01-30T03:46:18;8.60;53.30
3770;DHT22;1900;48.890;9.190;2024-01-30T03:48:45;8.60;53.20
3770;DHT22;1900;48.890;9.190;2024-01-30T03:51:11;8.60;53.20
3770;DHT22;1900;48.890;9.190;2024-01-30T03:53:44;8.50;53.10
3770;DHT22;1900;48.890;9.190;2024-01-30T03:56:12;8.50;53.10
3770;DHT22;1900;48.890;9.190;2024-01-30T03:58:39;8.50;53.10
3770;DHT22;1900;48.890;9.190;2024-01-30T04:01:04;8.50;53.10
3770;DHT22;1900;48.890;9.190;2024-01-30T04:03:30;8.50;53.10
3770;DHT22;1900;48.890;9.190;2024-01-30T04:05:56;8.50;53.20
3770;DHT22;1900;48.890;9.190;2024-01-30T04:08:21;8.50;53.20
3770;DHT22;1900;48.890;9.190;2024-01-30T04:10:47;8.40;53.10
3770;DHT22;1900;48.890;9.190;2024-01-30T04:13:13;8.40;53.10
3770;DHT22;1900;48.890;9.190;2024-01-30T04:15:39;8.40;53.10
3770;DHT22;1900;48.890;9.190;2024-01-30T04:18:05;8.40;53.10
3770;DHT22;1900;48.890;9.190;2024-01-30T04:20:31;8.40;53.20
3770;DHT22;1900;48.890;9.190;2024-01-30T04:22:57;8.40;53.20
3770;DHT22;1900;48.890;9.190;2024-01-30T04:25:22;8.40;53.20
3770;DHT22;1900;48.890;9.190;2024-01-30T04:27:48;8.40;53.20
3770;DHT22;1900;48.890;9.190;2024-01-30T04:30:14;8.30;53.10
3770;DHT22;1900;48.890;9.190;2024-01-30T04:32:40;8.30;53.10
3770;DHT22;1900;48.890;9.190;2024-01-30T04:35:06;8.30;53.10
3770;DHT22;1900;48.890;9.190;2024-01-30T04:37:32;8.30;53.10
3770;DHT22;1900;48.890;9.190;2024-01-30T04:39:58;8.30;53.10
3770;DHT22;1900;48.890;9.190;2024-01-30T04:42:23;8.30;53.10
3770;DHT22;1900;48.890;9.190;2024-01-30T04:44:50;8.30;53.10
3770;DHT22;1900;48.890;9.190;2024-01-30T04:47:15;8.30;53.10
3770;DHT22;1900;48.890;9.190;2024-01-30T04:49:41;8.30;53.20
3770;DHT22;1900;48.890;9.190;2024-01-30T04:52:08;8.30;53.10
3770;DHT22;1900;48.890;9.190;2024-01-30T04:54:35;8.30;53.10
3770;DHT22;1900;48.890;9.190;2024-01-30T04:57:01;8.20;53.00
3770;DHT22;1900;48.890;9.190;2024-01-30T04:59:27;8.20;52.90
3770;DHT22;1900;48.890;9.190;2024-01-30T05:01:53;8.20;52.90
3770;DHT22;1900;48.890;9.190;2024-01-30T05:04:19;8.10;52.80
3770;DHT22;1900;48.890;9.190;2024-01-30T05:06:45;8.10;52.80
3770;DHT22;1900;48.890;9.190;2024-01-30T05:09:11;8.10;52.90
3770;DHT22;1900;48.890;9.190;2024-01-30T05:11:41;8.10;52.90
3770;DHT22;1900;48.890;9.190;2024-01-30T05:14:07;8.10;52.90
3770;DHT22;1900;48.890;9.190;2024-01-30T05:16:34;8.00;52.90
3770;DHT22;1900;48.890;9.190;2024-01-30T05:18:59;8.00;52.90
3770;DHT22;1900;48.890;9.190;2024-01-30T05:21:25;8.00;53.00
3770;DHT22;1900;48.890;9.190;2024-01-30T05:23:51;8.00;53.00
3770;DHT22;1900;48.890;9.190;2024-01-30T05:26:17;8.00;53.10
3770;DHT22;1900;48.890;9.190;2024-01-30T05:29:02;8.00;53.10
3770;DHT22;1900;48.890;9.190;2024-01-30T05:31:27;8.00;53.10
3770;DHT22;1900;48.890;9.190;2024-01-30T05:33:54;8.00;53.10
3770;DHT22;1900;48.890;9.190;2024-01-30T05:36:20;8.00;53.10
3770;DHT22;1900;48.890;9.190;2024-01-30T05:38:47;8.00;53.10
3770;DHT22;1900;48.890;9.190;2024-01-30T05:41:12;8.00;53.10
3770;DHT22;1900;48.890;9.190;2024-01-30T05:43:38;8.00;53.00
3770;DHT22;1900;48.890;9.190;2024-01-30T05:46:04;8.00;53.10
3770;DHT22;1900;48.890;9.190;2024-01-30T05:48:31;8.00;53.10
3770;DHT22;1900;48.890;9.190;2024-01-30T05:51:18;7.90;53.00
3770;DHT22;1900;48.890;9.190;2024-01-30T05:53:44;7.90;53.00
3770;DHT22;1900;48.890;9.190;2024-01-30T05:56:10;7.90;53.00
3770;DHT22;1900;48.890;9.190;2024-01-30T05:58:35;7.90;53.00
3770;DHT22;1900;48.890;9.190;2024-01-30T06:01:07;7.90;53.00
3770;DHT22;1900;48.890;9.190;2024-01-30T06:03:36;7.90;53.00
3770;DHT22;1900;48.890;9.190;2024-01-30T06:06:02;7.90;53.00
3770;DHT22;1900;48.890;9.190;2024-01-30T06:08:27;7.90;53.10
3770;DHT22;1900;48.890;9.190;2024-01-30T06:10:53;7.90;53.10
3770;DHT22;1900;48.890;9.190;2024-01-30T06:13:19;7.90;53.10
3770;DHT22;1900;48.890;9.190;2024-01-30T06:15:45;7.90;53.10
3770;DHT22;1900;48.890;9.190;2024-01-30T06:18:11;7.90;53.10
3770;DHT22;1900;48.890;9.190;2024-01-30T06:20:36;7.90;53.10
3770;DHT22;1900;48.890;9.190;2024-01-30T06:23:02;7.90;53.00
3770;DHT22;1900;48.890;9.190;2024-01-30T06:25:28;7.80;53.00
3770;DHT22;1900;48.890;9.190;2024-01-30T06:27:54;7.80;52.90
3770;DHT22;1900;48.890;9.190;2024-01-30T06:30:20;7.80;53.00
3770;DHT22;1900;48.890;9.190;2024-01-30T06:32:45;7.80;53.00
3770;DHT22;1900;48.890;9.190;2024-01-30T06:35:11;7.80;53.00
3770;DHT22;1900;48.890;9.190;2024-01-30T06:37:38;7.80;53.10
3770;DHT22;1900;48.890;9.190;2024-01-30T06:40:04;7.80;53.10
3770;DHT22;1900;48.890;9.190;2024-01-30T06:42:31;7.80;53.10
3770;DHT22;1900;48.890;9.190;2024-01-30T06:44:56;7.80;53.10
3770;DHT22;1900;48.890;9.190;2024-01-30T06:47:23;7.80;53.10
3770;DHT22;1900;48.890;9.190;2024-01-30T06:49:48;7.80;53.10
3770;DHT22;1900;48.890;9.190;2024-01-30T06:52:14;7.80;53.10
3770;DHT22;1900;48.890;9.190;2024-01-30T06:54:40;7.80;53.10
3770;DHT22;1900;48.890;9.190;2024-01-30T06:57:06;7.80;53.10
3770;DHT22;1900;48.890;9.190;2024-01-30T06:59:37;7.70;53.10
3770;DHT22;1900;48.890;9.190;2024-01-30T07:02:03;7.80;53.20
3770;DHT22;1900;48.890;9.190;2024-01-30T07:04:28;7.80;53.10
3770;DHT22;1900;48.890;9.190;2024-01-30T07:06:54;7.80;53.20
3770;DHT22;1900;48.890;9.190;2024-01-30T07:09:20;7.80;53.20
3770;DHT22;1900;48.890;9.190;2024-01-30T07:11:45;7.80;53.20
3770;DHT22;1900;48.890;9.190;2024-01-30T07:14:11;7.80;53.20
3770;DHT22;1900;48.890;9.190;2024-01-30T07:16:37;7.80;53.30
3770;DHT22;1900;48.890;9.190;2024-01-30T07:19:03;7.80;53.20
3770;DHT22;1900;48.890;9.190;2024-01-30T07:21:28;7.80;53.20
3770;DHT22;1900;48.890;9.190;2024-01-30T07:23:54;7.80;53.20
3770;DHT22;1900;48.890;9.190;2024-01-30T07:26:21;7.80;53.30
3770;DHT22;1900;48.890;9.190;2024-01-30T07:28:46;7.80;53.20
3770;DHT22;1900;48.890;9.190;2024-01-30T07:31:12;7.80;53.30
3770;DHT22;1900;48.890;9.190;2024-01-30T07:33:38;7.80;53.30
3770;DHT22;1900;48.890;9.190;2024-01-30T07:36:04;7.80;53.20
3770;DHT22;1900;48.890;9.190;2024-01-30T07:38:32;7.80;53.20
3770;DHT22;1900;48.890;9.190;2024-01-30T07:40:57;7.80;53.20
3770;DHT22;1900;48.890;9.190;2024-01-30T07:43:23;7.80;53.10
3770;DHT22;1900;48.890;9.190;2024-01-30T07:45:49;7.80;53.20
3770;DHT22;1900;48.890;9.190;2024-01-30T07:48:15;7.80;53.20
3770;DHT22;1900;48.890;9.190;2024-01-30T07:50:40;7.80;53.30
3770;DHT22;1900;48.890;9.190;2024-01-30T07:53:07;7.80;53.30
3770;DHT22;1900;48.890;9.190;2024-01-30T07:55:33;7.80;53.30
3770;DHT22;1900;48.890;9.190;2024-01-30T07:57:59;7.80;53.30
3770;DHT22;1900;48.890;9.190;2024-01-30T08:00:25;7.80;53.30
3770;DHT22;1900;48.890;9.190;2024-01-30T08:02:51;7.80;53.30
3770;DHT22;1900;48.890;9.190;2024-01-30T08:05:19;7.80;53.30
3770;DHT22;1900;48.890;9.190;2024-01-30T08:07:51;7.80;53.30
3770;DHT22;1900;48.890;9.190;2024-01-30T08:10:17;7.80;53.30
3770;DHT22;1900;48.890;9.190;2024-01-30T08:12:45;7.80;53.30
3770;DHT22;1900;48.890;9.190;2024-01-30T08:15:11;7.90;53.40
3770;DHT22;1900;48.890;9.190;2024-01-30T08:17:41;7.90;53.40
3770;DHT22;1900;48.890;9.190;2024-01-30T08:20:07;7.80;53.40
3770;DHT22;1900;48.890;9.190;2024-01-30T08:22:33;7.90;53.50
3770;DHT22;1900;48.890;9.190;2024-01-30T08:24:59;7.90;53.50
3770;DHT22;1900;48.890;9.190;2024-01-30T08:27:25;7.90;53.50
3770;DHT22;1900;48.890;9.190;2024-01-30T08:29:50;7.90;53.50
3770;DHT22;1900;48.890;9.190;2024-01-30T08:32:16;7.90;53.50
3770;DHT22;1900;48.890;9.190;2024-01-30T08:34:42;7.90;53.60
3770;DHT22;1900;48.890;9.190;2024-01-30T08:37:08;7.90;53.70
3770;DHT22;1900;48.890;9.190;2024-01-30T08:39:34;7.90;53.70
3770;DHT22;1900;48.890;9.190;2024-01-30T08:42:00;8.00;53.80
3770;DHT22;1900;48.890;9.190;2024-01-30T08:44:25;8.00;53.80
3770;DHT22;1900;48.890;9.190;2024-01-30T08:46:51;8.00;53.80
3770;DHT22;1900;48.890;9.190;2024-01-30T08:49:17;8.00;53.90
3770;DHT22;1900;48.890;9.190;2024-01-30T08:51:43;8.10;54.00
3770;DHT22;1900;48.890;9.190;2024-01-30T08:54:08;8.10;54.00
3770;DHT22;1900;48.890;9.190;2024-01-30T08:56:34;8.10;54.00
3770;DHT22;1900;48.890;9.190;2024-01-30T08:59:00;8.20;54.20
3770;DHT22;1900;48.890;9.190;2024-01-30T09:01:26;8.20;54.20
3770;DHT22;1900;48.890;9.190;2024-01-30T09:03:52;8.20;54.20
3770;DHT22;1900;48.890;9.190;2024-01-30T09:06:18;8.30;54.30
3770;DHT22;1900;48.890;9.190;2024-01-30T09:08:43;8.30;54.30
3770;DHT22;1900;48.890;9.190;2024-01-30T09:11:13;8.30;54.30
3770;DHT22;1900;48.890;9.190;2024-01-30T09:13:39;8.40;54.40
3770;DHT22;1900;48.890;9.190;2024-01-30T09:16:06;8.40;54.50
3770;DHT22;1900;48.890;9.190;2024-01-30T09:18:32;8.40;54.60
3770;DHT22;1900;48.890;9.190;2024-01-30T09:20:58;8.50;54.70
3770;DHT22;1900;48.890;9.190;2024-01-30T09:23:24;8.60;54.80
3770;DHT22;1900;48.890;9.190;2024-01-30T09:25:50;8.60;54.80
3770;DHT22;1900;48.890;9.190;2024-01-30T09:28:17;8.60;54.80
3770;DHT22;1900;48.890;9.190;2024-01-30T09:30:43;8.70;54.90
3770;DHT22;1900;48.890;9.190;2024-01-30T09:33:08;8.70;54.90
3770;DHT22;1900;48.890;9.190;2024-01-30T09:35:34;8.80;55.00
3770;DHT22;1900;48.890;9.190;2024-01-30T09:38:00;8.80;55.00
3770;DHT22;1900;48.890;9.190;2024-01-30T09:40:26;8.90;55.10
3770;DHT22;1900;48.890;9.190;2024-01-30T09:42:54;8.90;55.10
3770;DHT22;1900;48.890;9.190;2024-01-30T09:45:24;9.00;55.30
3770;DHT22;1900;48.890;9.190;2024-01-30T09:47:50;9.00;55.30
3770;DHT22;1900;48.890;9.190;2024-01-30T09:50:16;9.10;55.40
3770;DHT22;1900;48.890;9.190;2024-01-30T09:52:47;9.20;55.60
3770;DHT22;1900;48.890;9.190;2024-01-30T09:55:13;9.20;55.60
3770;DHT22;1900;48.890;9.190;2024-01-30T09:57:39;9.30;55.70
3770;DHT22;1900;48.890;9.190;2024-01-30T10:00:06;9.30;55.80
3770;DHT22;1900;48.890;9.190;2024-01-30T10:02:39;9.40;55.80
3770;DHT22;1900;48.890;9.190;2024-01-30T10:05:06;9.50;55.80
3770;DHT22;1900;48.890;9.190;2024-01-30T10:07:33;9.50;55.80
3770;DHT22;1900;48.890;9.190;2024-01-30T10:10:02;9.60;55.90
3770;DHT22;1900;48.890;9.190;2024-01-30T10:12:29;9.60;55.80
3770;DHT22;1900;48.890;9.190;2024-01-30T10:14:56;9.60;55.80
3770;DHT22;1900;48.890;9.190;2024-01-30T10:17:25;9.70;55.90
3770;DHT22;1900;48.890;9.190;2024-01-30T10:19:52;9.80;56.00
3770;DHT22;1900;48.890;9.190;2024-01-30T10:22:18;9.80;56.00
3770;DHT22;1900;48.890;9.190;2024-01-30T10:24:44;9.80;56.00
3770;DHT22;1900;48.890;9.190;2024-01-30T10:27:11;9.90;56.10
3770;DHT22;1900;48.890;9.190;2024-01-30T10:29:37;9.90;56.10
3770;DHT22;1900;48.890;9.190;2024-01-30T10:32:04;10.00;55.40
3770;DHT22;1900;48.890;9.190;2024-01-30T10:34:32;10.10;55.50
3770;DHT22;1900;48.890;9.190;2024-01-30T10:37:09;10.10;55.50
3770;DHT22;1900;48.890;9.190;2024-01-30T10:39:39;10.10;55.50
3770;DHT22;1900;48.890;9.190;2024-01-30T10:42:06;10.20;55.60
3770;DHT22;1900;48.890;9.190;2024-01-30T10:44:37;10.20;55.60
3770;DHT22;1900;48.890;9.190;2024-01-30T10:47:08;10.30;55.80
3770;DHT22;1900;48.890;9.190;2024-01-30T10:49:37;10.30;55.80
3770;DHT22;1900;48.890;9.190;2024-01-30T10:52:05;10.40;56.00
3770;DHT22;1900;48.890;9.190;2024-01-30T10:54:31;10.50;56.10
3770;DHT22;1900;48.890;9.190;2024-01-30T10:57:00;10.50;56.10
3770;DHT22;1900;48.890;9.190;2024-01-30T10:59:31;10.60;56.20
3770;DHT22;1900;48.890;9.190;2024-01-30T11:01:58;10.70;56.20
3770;DHT22;1900;48.890;9.190;2024-01-30T11:04:25;10.70;56.20
3770;DHT22;1900;48.890;9.190;2024-01-30T11:06:51;10.80;56.30
3770;DHT22;1900;48.890;9.190;2024-01-30T11:09:20;10.90;56.40
3770;DHT22;1900;48.890;9.190;2024-01-30T11:11:59;10.90;56.40
3770;DHT22;1900;48.890;9.190;2024-01-30T11:14:31;11.00;56.50
3770;DHT22;1900;48.890;9.190;2024-01-30T11:16:58;11.00;56.60
3770;DHT22;1900;48.890;9.190;2024-01-30T11:19:25;11.10;56.70
3770;DHT22;1900;48.890;9.190;2024-01-30T11:21:55;11.20;56.80
3770;DHT22;1900;48.890;9.190;2024-01-30T11:24:23;11.20;56.80
3770;DHT22;1900;48.890;9.190;2024-01-30T11:26:50;11.30;56.80
3770;DHT22;1900;48.890;9.190;2024-01-30T11:29:27;11.40;57.00
3770;DHT22;1900;48.890;9.190;2024-01-30T11:31:58;11.40;57.00
3770;DHT22;1900;48.890;9.190;2024-01-30T11:34:28;11.50;57.00
3770;DHT22;1900;48.890;9.190;2024-01-30T11:36:59;11.60;57.10
3770;DHT22;1900;48.890;9.190;2024-01-30T11:39:27;11.60;57.10
3770;DHT22;1900;48.890;9.190;2024-01-30T11:41:53;11.70;57.20
3770;DHT22;1900;48.890;9.190;2024-01-30T11:44:20;11.70;57.20
3770;DHT22;1900;48.890;9.190;2024-01-30T11:46:49;11.80;57.30
3770;DHT22;1900;48.890;9.190;2024-01-30T11:49:18;11.80;57.80
3770;DHT22;1900;48.890;9.190;2024-01-30T11:51:47;11.90;57.30
3770;DHT22;1900;48.890;9.190;2024-01-30T11:54:15;11.90;57.30
3770;DHT22;1900;48.890;9.190;2024-01-30T11:56:42;12.00;57.30
3770;DHT22;1900;48.890;9.190;2024-01-30T11:59:08;12.00;57.30
3770;DHT22;1900;48.890;9.190;2024-01-30T12:01:34;12.10;57.50
3770;DHT22;1900;48.890;9.190;2024-01-30T12:04:01;12.10;57.40
3770;DHT22;1900;48.890;9.190;2024-01-30T12:06:27;12.20;57.50
3770;DHT22;1900;48.890;9.190;2024-01-30T12:09:01;12.20;57.50
3770;DHT22;1900;48.890;9.190;2024-01-30T12:11:30;12.30;57.60
3770;DHT22;1900;48.890;9.190;2024-01-30T12:13:56;12.30;57.60
3770;DHT22;1900;48.890;9.190;2024-01-30T12:16:21;12.40;57.70
3770;DHT22;1900;48.890;9.190;2024-01-30T12:18:48;12.40;57.70
3770;DHT22;1900;48.890;9.190;2024-01-30T12:21:17;12.50;57.70
3770;DHT22;1900;48.890;9.190;2024-01-30T12:23:44;12.50;57.70
3770;DHT22;1900;48.890;9.190;2024-01-30T12:26:10;12.60;57.80
3770;DHT22;1900;48.890;9.190;2024-01-30T12:28:36;12.60;57.80
3770;DHT22;1900;48.890;9.190;2024-01-30T12:31:03;12.70;57.80
3770;DHT22;1900;48.890;9.190;2024-01-30T12:33:30;12.70;57.80
3770;DHT22;1900;48.890;9.190;2024-01-30T12:35:57;12.70;57.80
3770;DHT22;1900;48.890;9.190;2024-01-30T12:38:24;12.80;57.90
3770;DHT22;1900;48.890;9.190;2024-01-30T12:40:54;12.80;57.90
3770;DHT22;1900;48.890;9.190;2024-01-30T12:43:26;12.90;58.00
3770;DHT22;1900;48.890;9.190;2024-01-30T12:46:11;12.90;58.20
3770;DHT22;1900;48.890;9.190;2024-01-30T12:48:37;13.00;58.30
3770;DHT22;1900;48.890;9.190;2024-01-30T12:51:03;13.00;58.30
3770;DHT22;1900;48.890;9.190;2024-01-30T12:53:48;13.10;58.40
3770;DHT22;1900;48.890;9.190;2024-01-30T12:56:14;13.20;58.60
3770;DHT22;1900;48.890;9.190;2024-01-30T12:58:41;13.20;58.60
3770;DHT22;1900;48.890;9.190;2024-01-30T13:01:08;13.30;58.80
3770;DHT22;1900;48.890;9.190;2024-01-30T13:03:34;13.40;58.90
3770;DHT22;1900;48.890;9.190;2024-01-30T13:06:00;13.50;59.10
3770;DHT22;1900;48.890;9.190;2024-01-30T13:08:26;13.60;59.20
3770;DHT22;1900;48.890;9.190;2024-01-30T13:10:51;13.70;59.20
3770;DHT22;1900;48.890;9.190;2024-01-30T13:13:17;13.70;59.20
3770;DHT22;1900;48.890;9.190;2024-01-30T13:15:43;13.80;59.20
3770;DHT22;1900;48.890;9.190;2024-01-30T13:18:08;13.90;59.30
3770;DHT22;1900;48.890;9.190;2024-01-30T13:20:34;13.90;59.40
3770;DHT22;1900;48.890;9.190;2024-01-30T13:23:00;14.10;59.70
3770;DHT22;1900;48.890;9.190;2024-01-30T13:25:25;14.20;59.80
3770;DHT22;1900;48.890;9.190;2024-01-30T13:27:51;14.30;60.00
3770;DHT22;1900;48.890;9.190;2024-01-30T13:30:17;14.40;60.10
3770;DHT22;1900;48.890;9.190;2024-01-30T13:32:43;14.40;60.10
3770;DHT22;1900;48.890;9.190;2024-01-30T13:35:10;14.50;60.10
3770;DHT22;1900;48.890;9.190;2024-01-30T13:37:35;14.60;60.10
3770;DHT22;1900;48.890;9.190;2024-01-30T13:40:05;14.70;60.10
3770;DHT22;1900;48.890;9.190;2024-01-30T13:42:38;14.70;60.00
3770;DHT22;1900;48.890;9.190;2024-01-30T13:45:04;14.80;60.00
3770;DHT22;1900;48.890;9.190;2024-01-30T13:47:30;14.80;59.90
3770;DHT22;1900;48.890;9.190;2024-01-30T13:49:56;14.90;60.00
3770;DHT22;1900;48.890;9.190;2024-01-30T13:52:22;14.90;60.00
3770;DHT22;1900;48.890;9.190;2024-01-30T13:54:48;15.00;60.10
3770;DHT22;1900;48.890;9.190;2024-01-30T13:57:13;15.00;60.10
3770;DHT22;1900;48.890;9.190;2024-01-30T13:59:39;15.10;60.10
3770;DHT22;1900;48.890;9.190;2024-01-30T14:02:05;15.20;60.10
3770;DHT22;1900;48.890;9.190;2024-01-30T14:04:33;15.20;60.00
3770;DHT22;1900;48.890;9.190;2024-01-30T14:06:59;15.20;59.90
3770;DHT22;1900;48.890;9.190;2024-01-30T14:09:25;15.20;59.90
3770;DHT22;1900;48.890;9.190;2024-01-30T14:11:51;15.20;59.80
3770;DHT22;1900;48.890;9.190;2024-01-30T14:14:16;15.20;59.80
3770;DHT22;1900;48.890;9.190;2024-01-30T14:16:42;15.20;59.70
3770;DHT22;1900;48.890;9.190;2024-01-30T14:19:08;15.30;59.80
3770;DHT22;1900;48.890;9.190;2024-01-30T14:21:33;15.20;59.60
3770;DHT22;1900;48.890;9.190;2024-01-30T14:23:59;15.20;59.50
3770;DHT22;1900;48.890;9.190;2024-01-30T14:26:25;15.20;59.50
3770;DHT22;1900;48.890;9.190;2024-01-30T14:28:51;15.20;59.40
3770;DHT22;1900;48.890;9.190;2024-01-30T14:31:16;15.20;59.40
3770;DHT22;1900;48.890;9.190;2024-01-30T14:33:44;15.20;59.40
3770;DHT22;1900;48.890;9.190;2024-01-30T14:36:30;15.20;59.30
3770;DHT22;1900;48.890;9.190;2024-01-30T14:38:56;15.20;59.30
3770;DHT22;1900;48.890;9.190;2024-01-30T14:41:21;15.10;59.70
3770;DHT22;1900;48.890;9.190;2024-01-30T14:43:47;15.20;59.20
3770;DHT22;1900;48.890;9.190;2024-01-30T14:46:13;15.10;59.00
3770;DHT22;1900;48.890;9.190;2024-01-30T14:48:39;15.10;59.00
3770;DHT22;1900;48.890;9.190;2024-01-30T14:51:05;15.00;58.90
3770;DHT22;1900;48.890;9.190;2024-01-30T14:53:31;15.10;59.10
3770;DHT22;1900;48.890;9.190;2024-01-30T14:55:56;15.00;58.90
3770;DHT22;1900;48.890;9.190;2024-01-30T14:58:22;15.00;58.90
3770;DHT22;1900;48.890;9.190;2024-01-30T15:00:48;15.00;58.90
3770;DHT22;1900;48.890;9.190;2024-01-30T15:03:13;15.00;58.80
3770;DHT22;1900;48.890;9.190;2024-01-30T15:05:40;14.90;58.70
3770;DHT22;1900;48.890;9.190;2024-01-30T15:08:06;14.90;58.70
3770;DHT22;1900;48.890;9.190;2024-01-30T15:10:32;14.80;58.60
3770;DHT22;1900;48.890;9.190;2024-01-30T15:12:58;14.80;58.60
3770;DHT22;1900;48.890;9.190;2024-01-30T15:15:23;14.80;58.50
3770;DHT22;1900;48.890;9.190;2024-01-30T15:17:49;14.70;58.50
3770;DHT22;1900;48.890;9.190;2024-01-30T15:20:15;14.70;58.50
3770;DHT22;1900;48.890;9.190;2024-01-30T15:22:44;14.70;58.50
3770;DHT22;1900;48.890;9.190;2024-01-30T15:25:10;14.70;58.50
3770;DHT22;1900;48.890;9.190;2024-01-30T15:27:36;14.60;58.40
3770;DHT22;1900;48.890;9.190;2024-01-30T15:30:02;14.60;58.40
3770;DHT22;1900;48.890;9.190;2024-01-30T15:32:28;14.60;58.40
3770;DHT22;1900;48.890;9.190;2024-01-30T15:34:54;14.50;58.30
3770;DHT22;1900;48.890;9.190;2024-01-30T15:37:22;14.50;58.20
3770;DHT22;1900;48.890;9.190;2024-01-30T15:39:47;14.50;58.20
3770;DHT22;1900;48.890;9.190;2024-01-30T15:42:13;14.40;58.10
3770;DHT22;1900;48.890;9.190;2024-01-30T15:44:39;14.40;58.10
3770;DHT22;1900;48.890;9.190;2024-01-30T15:47:05;14.40;58.10
3770;DHT22;1900;48.890;9.190;2024-01-30T15:49:31;14.30;58.10
3770;DHT22;1900;48.890;9.190;2024-01-30T15:51:56;14.30;58.10
3770;DHT22;1900;48.890;9.190;2024-01-30T15:54:22;14.30;58.10
3770;DHT22;1900;48.890;9.190;2024-01-30T15:56:48;14.20;58.00
3770;DHT22;1900;48.890;9.190;2024-01-30T15:59:14;14.20;58.00
3770;DHT22;1900;48.890;9.190;2024-01-30T16:01:39;14.20;58.00
3770;DHT22;1900;48.890;9.190;2024-01-30T16:04:06;14.20;58.00
3770;DHT22;1900;48.890;9.190;2024-01-30T16:06:32;14.20;58.00
3770;DHT22;1900;48.890;9.190;2024-01-30T16:08:57;14.10;57.90